Syzran', Russia
Current Conditions -  °F | °C
As of 4:00 PM on Sunday 25 Jan 2015 (Local Time) from UWWW Reporting Station
Clear Clear  
Wind Chill: -13°   Ceiling: Unl
Heat Index:   Visibility: 6mi
Dew Point: -4°   Wind: 11mph
Humidity: 72%   Direction: 190°S
Pressure: 30.86"   Gusts: NA
Location:  53.17°N, 48.47°E
Report Text: UWWW 251200Z 19005MPS CAVOK M16/M20 Q1045 23820545 15//99//NOSIG RMK QFE772/1030
Loading
Personal Weather Stations






























Interactive Weather Map New forecast layout! Learn more

10-Day Weather Forecast

Advertisements
Track Severe Weather on mobile